sensor_id;sensor_type;location;lat;lon;timestamp;temperature;humidity
76102;SHT30;64830;46.910;6.354;2022-12-18T00:00:55;-2.61;77.03
76102;SHT30;64830;46.910;6.354;2022-12-18T00:03:20;-2.62;77.06
76102;SHT30;64830;46.910;6.354;2022-12-18T00:05:50;-2.64;77.17
76102;SHT30;64830;46.910;6.354;2022-12-18T00:08:16;-2.64;77.52
76102;SHT30;64830;46.910;6.354;2022-12-18T00:10:42;-2.68;77.49
76102;SHT30;64830;46.910;6.354;2022-12-18T00:13:08;-2.68;77.56
76102;SHT30;64830;46.910;6.354;2022-12-18T00:15:38;-2.73;77.54
76102;SHT30;64830;46.910;6.354;2022-12-18T00:18:04;-2.76;77.75
76102;SHT30;64830;46.910;6.354;2022-12-18T00:20:30;-2.79;77.59
76102;SHT30;64830;46.910;6.354;2022-12-18T00:22:56;-2.82;77.51
76102;SHT30;64830;46.910;6.354;2022-12-18T00:25:21;-2.82;77.65
76102;SHT30;64830;46.910;6.354;2022-12-18T00:27:47;-2.87;77.92
76102;SHT30;64830;46.910;6.354;2022-12-18T00:30:12;-2.87;77.89
76102;SHT30;64830;46.910;6.354;2022-12-18T00:32:38;-2.92;77.97
76102;SHT30;64830;46.910;6.354;2022-12-18T00:35:05;-2.96;78.23
76102;SHT30;64830;46.910;6.354;2022-12-18T00:37:30;-2.96;78.16
76102;SHT30;64830;46.910;6.354;2022-12-18T00:39:56;-3.00;78.30
76102;SHT30;64830;46.910;6.354;2022-12-18T00:42:21;-2.99;78.19
76102;SHT30;64830;46.910;6.354;2022-12-18T00:45:06;-3.00;78.32
76102;SHT30;64830;46.910;6.354;2022-12-18T00:47:31;-3.00;78.26
76102;SHT30;64830;46.910;6.354;2022-12-18T00:49:57;-3.01;78.41
76102;SHT30;64830;46.910;6.354;2022-12-18T00:52:22;-3.03;78.60
76102;SHT30;64830;46.910;6.354;2022-12-18T00:54:48;-3.04;78.52
76102;SHT30;64830;46.910;6.354;2022-12-18T00:57:13;-3.03;78.53
76102;SHT30;64830;46.910;6.354;2022-12-18T00:59:38;-3.04;78.50
76102;SHT30;64830;46.910;6.354;2022-12-18T01:02:04;-3.03;78.61
76102;SHT30;64830;46.910;6.354;2022-12-18T01:04:31;-3.03;78.58
76102;SHT30;64830;46.910;6.354;2022-12-18T01:06:57;-3.01;78.72
76102;SHT30;64830;46.910;6.354;2022-12-18T01:09:23;-3.01;78.60
76102;SHT30;64830;46.910;6.354;2022-12-18T01:11:48;-3.01;78.85
76102;SHT30;64830;46.910;6.354;2022-12-18T01:14:13;-3.03;78.85
76102;SHT30;64830;46.910;6.354;2022-12-18T01:16:39;-3.00;78.92
76102;SHT30;64830;46.910;6.354;2022-12-18T01:19:04;-2.99;78.80
76102;SHT30;64830;46.910;6.354;2022-12-18T01:21:30;-3.00;78.85
76102;SHT30;64830;46.910;6.354;2022-12-18T01:23:56;-2.99;78.75
76102;SHT30;64830;46.910;6.354;2022-12-18T01:26:22;-2.96;78.71
76102;SHT30;64830;46.910;6.354;2022-12-18T01:28:48;-2.97;78.64
76102;SHT30;64830;46.910;6.354;2022-12-18T01:33:44;-2.97;78.71
76102;SHT30;64830;46.910;6.354;2022-12-18T01:36:37;-2.97;78.55
76102;SHT30;64830;46.910;6.354;2022-12-18T01:39:10;-3.00;78.59
76102;SHT30;64830;46.910;6.354;2022-12-18T01:41:35;-2.96;78.72
76102;SHT30;64830;46.910;6.354;2022-12-18T01:49:59;-2.97;78.58
76102;SHT30;64830;46.910;6.354;2022-12-18T01:52:28;-2.97;78.56
76102;SHT30;64830;46.910;6.354;2022-12-18T01:54:54;-2.99;78.48
76102;SHT30;64830;46.910;6.354;2022-12-18T01:57:21;-3.00;78.64
76102;SHT30;64830;46.910;6.354;2022-12-18T01:59:50;-2.97;78.58
76102;SHT30;64830;46.910;6.354;2022-12-18T02:02:18;-3.01;78.68
76102;SHT30;64830;46.910;6.354;2022-12-18T02:04:45;-3.00;78.63
76102;SHT30;64830;46.910;6.354;2022-12-18T02:07:17;-3.00;78.62
76102;SHT30;64830;46.910;6.354;2022-12-18T02:12:23;-3.00;78.69
76102;SHT30;64830;46.910;6.354;2022-12-18T02:14:55;-3.00;78.67
76102;SHT30;64830;46.910;6.354;2022-12-18T02:17:40;-3.00;78.69
76102;SHT30;64830;46.910;6.354;2022-12-18T02:20:33;-3.00;78.66
76102;SHT30;64830;46.910;6.354;2022-12-18T02:28:45;-3.00;78.56
76102;SHT30;64830;46.910;6.354;2022-12-18T02:31:17;-3.03;78.54
76102;SHT30;64830;46.910;6.354;2022-12-18T02:33:44;-3.01;78.44
76102;SHT30;64830;46.910;6.354;2022-12-18T02:36:12;-3.00;78.58
76102;SHT30;64830;46.910;6.354;2022-12-18T02:38:40;-3.01;78.39
76102;SHT30;64830;46.910;6.354;2022-12-18T02:41:07;-2.99;78.38
76102;SHT30;64830;46.910;6.354;2022-12-18T02:43:32;-2.99;78.46
76102;SHT30;64830;46.910;6.354;2022-12-18T02:46:00;-3.01;78.33
76102;SHT30;64830;46.910;6.354;2022-12-18T02:48:46;-2.97;78.28
76102;SHT30;64830;46.910;6.354;2022-12-18T02:51:19;-2.97;78.28
76102;SHT30;64830;46.910;6.354;2022-12-18T02:54:32;-2.94;78.17
76102;SHT30;64830;46.910;6.354;2022-12-18T02:56:47;-2.96;78.07
76102;SHT30;64830;46.910;6.354;2022-12-18T02:59:24;-2.96;78.17
76102;SHT30;64830;46.910;6.354;2022-12-18T03:04:43;-2.90;77.94
76102;SHT30;64830;46.910;6.354;2022-12-18T03:07:19;-2.93;77.90
76102;SHT30;64830;46.910;6.354;2022-12-18T03:09:50;-2.94;77.70
76102;SHT30;64830;46.910;6.354;2022-12-18T03:12:29;-2.97;77.69
76102;SHT30;64830;46.910;6.354;2022-12-18T03:15:08;-2.97;77.73
76102;SHT30;64830;46.910;6.354;2022-12-18T03:17:34;-2.94;77.62
76102;SHT30;64830;46.910;6.354;2022-12-18T03:20:07;-2.96;77.48
76102;SHT30;64830;46.910;6.354;2022-12-18T03:22:35;-2.97;77.40
76102;SHT30;64830;46.910;6.354;2022-12-18T03:25:06;-3.00;77.25
76102;SHT30;64830;46.910;6.354;2022-12-18T03:27:33;-3.03;77.38
76102;SHT30;64830;46.910;6.354;2022-12-18T03:30:07;-3.03;77.59
76102;SHT30;64830;46.910;6.354;2022-12-18T03:32:47;-3.04;77.62
76102;SHT30;64830;46.910;6.354;2022-12-18T03:35:18;-3.04;77.68
76102;SHT30;64830;46.910;6.354;2022-12-18T03:37:44;-3.03;77.76
76102;SHT30;64830;46.910;6.354;2022-12-18T03:40:10;-3.04;77.80
76102;SHT30;64830;46.910;6.354;2022-12-18T03:42:47;-3.03;77.87
76102;SHT30;64830;46.910;6.354;2022-12-18T03:45:22;-3.05;77.92
76102;SHT30;64830;46.910;6.354;2022-12-18T03:53:12;-3.08;77.91
76102;SHT30;64830;46.910;6.354;2022-12-18T03:55:40;-3.07;77.98
76102;SHT30;64830;46.910;6.354;2022-12-18T03:58:07;-3.10;78.10
76102;SHT30;64830;46.910;6.354;2022-12-18T04:00:33;-3.08;78.31
76102;SHT30;64830;46.910;6.354;2022-12-18T04:03:00;-3.10;78.16
76102;SHT30;64830;46.910;6.354;2022-12-18T04:05:28;-3.08;78.24
76102;SHT30;64830;46.910;6.354;2022-12-18T04:07:56;-3.07;78.29
76102;SHT30;64830;46.910;6.354;2022-12-18T04:10:22;-3.05;78.38
76102;SHT30;64830;46.910;6.354;2022-12-18T04:12:47;-3.04;78.34
76102;SHT30;64830;46.910;6.354;2022-12-18T04:15:13;-3.03;78.42
76102;SHT30;64830;46.910;6.354;2022-12-18T04:17:46;-2.97;78.34
76102;SHT30;64830;46.910;6.354;2022-12-18T04:20:12;-3.00;78.31
76102;SHT30;64830;46.910;6.354;2022-12-18T04:22:38;-3.00;78.14
76102;SHT30;64830;46.910;6.354;2022-12-18T04:25:04;-3.01;77.90
76102;SHT30;64830;46.910;6.354;2022-12-18T04:27:29;-3.01;78.02
76102;SHT30;64830;46.910;6.354;2022-12-18T04:29:55;-3.00;77.91
76102;SHT30;64830;46.910;6.354;2022-12-18T04:32:20;-3.05;77.86
76102;SHT30;64830;46.910;6.354;2022-12-18T04:34:46;-3.05;77.92
76102;SHT30;64830;46.910;6.354;2022-12-18T04:37:11;-3.10;78.10
76102;SHT30;64830;46.910;6.354;2022-12-18T04:39:37;-3.11;78.34
76102;SHT30;64830;46.910;6.354;2022-12-18T04:42:02;-3.15;78.41
76102;SHT30;64830;46.910;6.354;2022-12-18T04:44:27;-3.20;78.46
76102;SHT30;64830;46.910;6.354;2022-12-18T04:46:53;-3.22;78.75
76102;SHT30;64830;46.910;6.354;2022-12-18T04:49:18;-3.25;78.77
76102;SHT30;64830;46.910;6.354;2022-12-18T04:51:44;-3.25;78.73
76102;SHT30;64830;46.910;6.354;2022-12-18T04:54:09;-3.30;78.90
76102;SHT30;64830;46.910;6.354;2022-12-18T04:56:34;-3.32;79.01
76102;SHT30;64830;46.910;6.354;2022-12-18T04:59:00;-3.34;78.96
76102;SHT30;64830;46.910;6.354;2022-12-18T05:01:25;-3.37;78.94
76102;SHT30;64830;46.910;6.354;2022-12-18T05:03:51;-3.39;79.00
76102;SHT30;64830;46.910;6.354;2022-12-18T05:06:17;-3.39;78.79
76102;SHT30;64830;46.910;6.354;2022-12-18T05:08:42;-3.39;78.87
76102;SHT30;64830;46.910;6.354;2022-12-18T05:11:11;-3.47;78.88
76102;SHT30;64830;46.910;6.354;2022-12-18T05:13:36;-3.49;78.92
76102;SHT30;64830;46.910;6.354;2022-12-18T05:16:03;-3.54;79.12
76102;SHT30;64830;46.910;6.354;2022-12-18T05:18:29;-3.58;79.07
76102;SHT30;64830;46.910;6.354;2022-12-18T05:20:55;-3.56;79.72
76102;SHT30;64830;46.910;6.354;2022-12-18T05:23:21;-3.56;79.75
76102;SHT30;64830;46.910;6.354;2022-12-18T05:26:07;-3.58;79.63
76102;SHT30;64830;46.910;6.354;2022-12-18T05:28:34;-3.58;79.69
76102;SHT30;64830;46.910;6.354;2022-12-18T05:31:01;-3.58;79.85
76102;SHT30;64830;46.910;6.354;2022-12-18T05:33:30;-3.56;79.84
76102;SHT30;64830;46.910;6.354;2022-12-18T05:35:59;-3.56;79.75
76102;SHT30;64830;46.910;6.354;2022-12-18T05:38:26;-3.56;79.77
76102;SHT30;64830;46.910;6.354;2022-12-18T05:40:53;-3.55;79.53
76102;SHT30;64830;46.910;6.354;2022-12-18T05:43:19;-3.56;79.44
76102;SHT30;64830;46.910;6.354;2022-12-18T05:45:45;-3.54;79.47
76102;SHT30;64830;46.910;6.354;2022-12-18T05:48:11;-3.56;79.39
76102;SHT30;64830;46.910;6.354;2022-12-18T05:50:38;-3.60;79.47
76102;SHT30;64830;46.910;6.354;2022-12-18T05:53:04;-3.63;79.43
76102;SHT30;64830;46.910;6.354;2022-12-18T05:55:34;-3.63;79.44
76102;SHT30;64830;46.910;6.354;2022-12-18T05:58:01;-3.65;79.53
76102;SHT30;64830;46.910;6.354;2022-12-18T06:00:27;-3.62;79.40
76102;SHT30;64830;46.910;6.354;2022-12-18T06:02:52;-3.63;79.37
76102;SHT30;64830;46.910;6.354;2022-12-18T06:05:17;-3.65;79.14
76102;SHT30;64830;46.910;6.354;2022-12-18T06:07:43;-3.66;79.22
76102;SHT30;64830;46.910;6.354;2022-12-18T06:10:08;-3.66;79.19
76102;SHT30;64830;46.910;6.354;2022-12-18T06:12:34;-3.66;79.20
76102;SHT30;64830;46.910;6.354;2022-12-18T06:14:59;-3.65;79.15
76102;SHT30;64830;46.910;6.354;2022-12-18T06:17:29;-3.65;79.11
76102;SHT30;64830;46.910;6.354;2022-12-18T06:19:54;-3.62;79.28
76102;SHT30;64830;46.910;6.354;2022-12-18T06:22:20;-3.63;79.32
76102;SHT30;64830;46.910;6.354;2022-12-18T06:24:45;-3.62;79.53
76102;SHT30;64830;46.910;6.354;2022-12-18T06:27:11;-3.58;79.53
76102;SHT30;64830;46.910;6.354;2022-12-18T06:29:37;-3.59;79.54
76102;SHT30;64830;46.910;6.354;2022-12-18T06:32:02;-3.55;79.44
76102;SHT30;64830;46.910;6.354;2022-12-18T06:34:28;-3.54;79.55
76102;SHT30;64830;46.910;6.354;2022-12-18T06:36:56;-3.52;79.75
76102;SHT30;64830;46.910;6.354;2022-12-18T06:39:21;-3.49;79.85
76102;SHT30;64830;46.910;6.354;2022-12-18T06:41:47;-3.49;80.05
76102;SHT30;64830;46.910;6.354;2022-12-18T06:44:12;-3.48;80.11
76102;SHT30;64830;46.910;6.354;2022-12-18T06:46:37;-3.45;80.18
76102;SHT30;64830;46.910;6.354;2022-12-18T06:49:03;-3.42;80.42
76102;SHT30;64830;46.910;6.354;2022-12-18T06:51:28;-3.42;80.23
76102;SHT30;64830;46.910;6.354;2022-12-18T06:53:54;-3.39;80.36
76102;SHT30;64830;46.910;6.354;2022-12-18T06:56:19;-3.38;80.31
76102;SHT30;64830;46.910;6.354;2022-12-18T06:58:45;-3.38;80.41
76102;SHT30;64830;46.910;6.354;2022-12-18T07:01:11;-3.39;80.49
76102;SHT30;64830;46.910;6.354;2022-12-18T07:03:38;-3.37;80.52
76102;SHT30;64830;46.910;6.354;2022-12-18T07:06:04;-3.37;80.39
76102;SHT30;64830;46.910;6.354;2022-12-18T07:08:31;-3.39;80.35
76102;SHT30;64830;46.910;6.354;2022-12-18T07:10:57;-3.41;80.46
76102;SHT30;64830;46.910;6.354;2022-12-18T07:13:22;-3.42;80.59
76102;SHT30;64830;46.910;6.354;2022-12-18T07:15:48;-3.41;80.40
76102;SHT30;64830;46.910;6.354;2022-12-18T07:18:14;-3.41;80.33
76102;SHT30;64830;46.910;6.354;2022-12-18T07:20:39;-3.41;80.28
76102;SHT30;64830;46.910;6.354;2022-12-18T07:23:05;-3.42;80.56
76102;SHT30;64830;46.910;6.354;2022-12-18T07:25:34;-3.45;80.66
76102;SHT30;64830;46.910;6.354;2022-12-18T07:28:00;-3.44;80.63
76102;SHT30;64830;46.910;6.354;2022-12-18T07:30:25;-3.42;80.52
76102;SHT30;64830;46.910;6.354;2022-12-18T07:32:51;-3.41;80.59
76102;SHT30;64830;46.910;6.354;2022-12-18T07:35:16;-3.42;80.58
76102;SHT30;64830;46.910;6.354;2022-12-18T07:37:42;-3.41;80.60
76102;SHT30;64830;46.910;6.354;2022-12-18T07:40:08;-3.38;80.44
76102;SHT30;64830;46.910;6.354;2022-12-18T07:42:33;-3.35;80.14
76102;SHT30;64830;46.910;6.354;2022-12-18T07:45:00;-3.38;80.06
76102;SHT30;64830;46.910;6.354;2022-12-18T07:47:27;-3.37;80.23
76102;SHT30;64830;46.910;6.354;2022-12-18T07:49:53;-3.39;80.59
76102;SHT30;64830;46.910;6.354;2022-12-18T07:52:18;-3.32;80.35
76102;SHT30;64830;46.910;6.354;2022-12-18T07:54:44;-3.32;80.16
76102;SHT30;64830;46.910;6.354;2022-12-18T07:57:09;-3.31;80.36
76102;SHT30;64830;46.910;6.354;2022-12-18T07:59:35;-3.28;80.39
76102;SHT30;64830;46.910;6.354;2022-12-18T08:02:00;-3.24;80.12
76102;SHT30;64830;46.910;6.354;2022-12-18T08:04:26;-3.18;79.96
76102;SHT30;64830;46.910;6.354;2022-12-18T08:06:52;-3.14;79.97
76102;SHT30;64830;46.910;6.354;2022-12-18T08:09:18;-3.05;79.65
76102;SHT30;64830;46.910;6.354;2022-12-18T08:11:44;-2.99;79.50
76102;SHT30;64830;46.910;6.354;2022-12-18T08:14:09;-2.93;79.42
76102;SHT30;64830;46.910;6.354;2022-12-18T08:16:35;-2.87;79.54
76102;SHT30;64830;46.910;6.354;2022-12-18T08:19:00;-2.77;79.58
76102;SHT30;64830;46.910;6.354;2022-12-18T08:21:28;-2.69;79.43
76102;SHT30;64830;46.910;6.354;2022-12-18T08:23:57;-2.59;79.34
76102;SHT30;64830;46.910;6.354;2022-12-18T08:26:25;-2.54;79.27
76102;SHT30;64830;46.910;6.354;2022-12-18T08:28:54;-2.47;79.42
76102;SHT30;64830;46.910;6.354;2022-12-18T08:31:20;-2.41;79.32
76102;SHT30;64830;46.910;6.354;2022-12-18T08:33:48;-2.31;79.20
76102;SHT30;64830;46.910;6.354;2022-12-18T08:36:14;-2.26;79.04
76102;SHT30;64830;46.910;6.354;2022-12-18T08:38:39;-2.15;78.81
76102;SHT30;64830;46.910;6.354;2022-12-18T08:41:07;-2.09;78.76
76102;SHT30;64830;46.910;6.354;2022-12-18T08:43:33;-1.96;78.55
76102;SHT30;64830;46.910;6.354;2022-12-18T08:46:18;-1.87;78.40
76102;SHT30;64830;46.910;6.354;2022-12-18T08:48:44;-1.75;78.34
76102;SHT30;64830;46.910;6.354;2022-12-18T08:51:09;-1.65;77.89
76102;SHT30;64830;46.910;6.354;2022-12-18T08:53:36;-1.51;77.86
76102;SHT30;64830;46.910;6.354;2022-12-18T08:56:02;-1.41;77.78
76102;SHT30;64830;46.910;6.354;2022-12-18T08:58:28;-1.26;77.83
76102;SHT30;64830;46.910;6.354;2022-12-18T09:00:53;-1.12;77.11
76102;SHT30;64830;46.910;6.354;2022-12-18T09:03:19;-1.02;76.38
76102;SHT30;64830;46.910;6.354;2022-12-18T09:05:47;-0.92;76.35
76102;SHT30;64830;46.910;6.354;2022-12-18T09:08:13;-0.81;76.48
76102;SHT30;64830;46.910;6.354;2022-12-18T09:10:46;-0.75;76.11
76102;SHT30;64830;46.910;6.354;2022-12-18T09:13:12;-0.69;76.25
76102;SHT30;64830;46.910;6.354;2022-12-18T09:15:55;-0.60;76.18
76102;SHT30;64830;46.910;6.354;2022-12-18T09:18:22;-0.45;76.38
76102;SHT30;64830;46.910;6.354;2022-12-18T09:20:49;-0.38;76.14
76102;SHT30;64830;46.910;6.354;2022-12-18T09:23:16;-0.26;76.17
76102;SHT30;64830;46.910;6.354;2022-12-18T09:25:42;-0.12;76.35
76102;SHT30;64830;46.910;6.354;2022-12-18T09:28:13;0.01;76.23
76102;SHT30;64830;46.910;6.354;2022-12-18T09:30:45;0.15;76.10
76102;SHT30;64830;46.910;6.354;2022-12-18T09:33:11;0.32;75.80
76102;SHT30;64830;46.910;6.354;2022-12-18T09:35:37;0.45;75.59
76102;SHT30;64830;46.910;6.354;2022-12-18T09:38:02;0.57;75.27
76102;SHT30;64830;46.910;6.354;2022-12-18T09:40:35;0.66;75.16
76102;SHT30;64830;46.910;6.354;2022-12-18T09:43:04;0.78;74.90
76102;SHT30;64830;46.910;6.354;2022-12-18T09:45:41;0.85;73.40
76102;SHT30;64830;46.910;6.354;2022-12-18T09:48:34;0.91;73.94
76102;SHT30;64830;46.910;6.354;2022-12-18T09:51:05;0.96;74.13
76102;SHT30;64830;46.910;6.354;2022-12-18T09:53:37;1.01;74.29
76102;SHT30;64830;46.910;6.354;2022-12-18T09:56:05;1.09;74.12
76102;SHT30;64830;46.910;6.354;2022-12-18T09:58:35;1.16;74.00
76102;SHT30;64830;46.910;6.354;2022-12-18T10:01:23;1.25;73.52
76102;SHT30;64830;46.910;6.354;2022-12-18T10:03:49;1.30;73.80
76102;SHT30;64830;46.910;6.354;2022-12-18T10:06:23;1.35;73.19
76102;SHT30;64830;46.910;6.354;2022-12-18T10:12:08;1.44;73.73
76102;SHT30;64830;46.910;6.354;2022-12-18T10:17:58;1.60;73.20
76102;SHT30;64830;46.910;6.354;2022-12-18T10:20:52;1.71;73.35
76102;SHT30;64830;46.910;6.354;2022-12-18T10:23:48;1.84;73.46
76102;SHT30;64830;46.910;6.354;2022-12-18T10:26:17;1.92;73.02
76102;SHT30;64830;46.910;6.354;2022-12-18T10:28:43;2.03;72.97
76102;SHT30;64830;46.910;6.354;2022-12-18T10:31:21;2.09;72.72
76102;SHT30;64830;46.910;6.354;2022-12-18T10:33:47;2.20;73.26
76102;SHT30;64830;46.910;6.354;2022-12-18T10:36:13;2.27;72.51
76102;SHT30;64830;46.910;6.354;2022-12-18T10:38:38;2.36;72.65
76102;SHT30;64830;46.910;6.354;2022-12-18T10:43:35;2.47;71.87
76102;SHT30;64830;46.910;6.354;2022-12-18T10:48:27;2.62;72.27
76102;SHT30;64830;46.910;6.354;2022-12-18T10:50:53;2.70;72.35
76102;SHT30;64830;46.910;6.354;2022-12-18T10:53:25;2.72;71.17
76102;SHT30;64830;46.910;6.354;2022-12-18T10:55:53;2.74;71.66
76102;SHT30;64830;46.910;6.354;2022-12-18T10:58:26;2.77;72.06
76102;SHT30;64830;46.910;6.354;2022-12-18T11:06:23;3.02;72.15
76102;SHT30;64830;46.910;6.354;2022-12-18T11:09:03;3.05;72.07
76102;SHT30;64830;46.910;6.354;2022-12-18T11:11:29;3.09;71.58
76102;SHT30;64830;46.910;6.354;2022-12-18T11:14:05;3.13;72.32
76102;SHT30;64830;46.910;6.354;2022-12-18T11:16:42;3.17;72.10
76102;SHT30;64830;46.910;6.354;2022-12-18T11:19:37;3.26;71.96
76102;SHT30;64830;46.910;6.354;2022-12-18T11:27:24;3.46;71.31
76102;SHT30;64830;46.910;6.354;2022-12-18T11:29:50;3.41;71.70
76102;SHT30;64830;46.910;6.354;2022-12-18T11:32:38;3.46;71.15
76102;SHT30;64830;46.910;6.354;2022-12-18T11:35:20;3.44;72.12
76102;SHT30;64830;46.910;6.354;2022-12-18T11:37:57;3.54;72.09
76102;SHT30;64830;46.910;6.354;2022-12-18T11:40:44;3.65;72.10
76102;SHT30;64830;46.910;6.354;2022-12-18T11:43:21;3.71;72.15
76102;SHT30;64830;46.910;6.354;2022-12-18T11:45:59;3.81;72.16
76102;SHT30;64830;46.910;6.354;2022-12-18T11:48:34;3.88;72.02
76102;SHT30;64830;46.910;6.354;2022-12-18T11:51:04;3.95;71.71
76102;SHT30;64830;46.910;6.354;2022-12-18T11:53:34;4.03;71.27
76102;SHT30;64830;46.910;6.354;2022-12-18T11:59:06;4.16;71.34
76102;SHT30;64830;46.910;6.354;2022-12-18T12:04:50;4.29;70.89
76102;SHT30;64830;46.910;6.354;2022-12-18T12:12:36;4.29;70.24
76102;SHT30;64830;46.910;6.354;2022-12-18T12:15:28;4.29;70.11
76102;SHT30;64830;46.910;6.354;2022-12-18T12:26:06;4.41;70.51
76102;SHT30;64830;46.910;6.354;2022-12-18T12:41:01;4.71;70.35
76102;SHT30;64830;46.910;6.354;2022-12-18T12:43:44;4.78;70.26
76102;SHT30;64830;46.910;6.354;2022-12-18T12:46:15;4.86;70.37
76102;SHT30;64830;46.910;6.354;2022-12-18T12:49:18;4.92;70.25
76102;SHT30;64830;46.910;6.354;2022-12-18T12:51:40;4.99;69.17
76102;SHT30;64830;46.910;6.354;2022-12-18T12:54:21;5.00;69.02
76102;SHT30;64830;46.910;6.354;2022-12-18T12:56:50;5.01;69.60
76102;SHT30;64830;46.910;6.354;2022-12-18T12:59:31;5.10;69.81
76102;SHT30;64830;46.910;6.354;2022-12-18T13:05:41;5.24;68.61
76102;SHT30;64830;46.910;6.354;2022-12-18T13:08:08;5.26;68.47
76102;SHT30;64830;46.910;6.354;2022-12-18T13:10:39;5.30;68.96
76102;SHT30;64830;46.910;6.354;2022-12-18T13:13:10;5.37;68.71
76102;SHT30;64830;46.910;6.354;2022-12-18T13:15:45;5.44;68.47
76102;SHT30;64830;46.910;6.354;2022-12-18T13:18:20;5.52;68.15
76102;SHT30;64830;46.910;6.354;2022-12-18T13:25:56;5.72;68.75
76102;SHT30;64830;46.910;6.354;2022-12-18T13:31:06;5.85;68.31
76102;SHT30;64830;46.910;6.354;2022-12-18T13:33:45;5.90;68.26
76102;SHT30;64830;46.910;6.354;2022-12-18T13:36:32;5.96;68.12
76102;SHT30;64830;46.910;6.354;2022-12-18T13:39:22;6.00;67.91
76102;SHT30;64830;46.910;6.354;2022-12-18T13:41:53;6.03;67.66
76102;SHT30;64830;46.910;6.354;2022-12-18T13:44:32;6.05;68.01
76102;SHT30;64830;46.910;6.354;2022-12-18T13:46:59;6.06;68.12
76102;SHT30;64830;46.910;6.354;2022-12-18T13:49:42;6.05;68.03
76102;SHT30;64830;46.910;6.354;2022-12-18T13:52:23;6.00;68.39
76102;SHT30;64830;46.910;6.354;2022-12-18T13:55:00;5.99;68.46
76102;SHT30;64830;46.910;6.354;2022-12-18T13:57:29;5.96;68.23
76102;SHT30;64830;46.910;6.354;2022-12-18T13:59:56;5.92;68.40
76102;SHT30;64830;46.910;6.354;2022-12-18T14:02:27;5.92;68.69
76102;SHT30;64830;46.910;6.354;2022-12-18T14:04:54;5.90;68.65
76102;SHT30;64830;46.910;6.354;2022-12-18T14:07:23;5.86;68.58
76102;SHT30;64830;46.910;6.354;2022-12-18T14:09:56;5.88;68.47
76102;SHT30;64830;46.910;6.354;2022-12-18T14:12:28;5.82;68.38
76102;SHT30;64830;46.910;6.354;2022-12-18T14:15:39;5.82;68.42
76102;SHT30;64830;46.910;6.354;2022-12-18T14:18:21;5.78;68.39
76102;SHT30;64830;46.910;6.354;2022-12-18T14:20:49;5.76;68.75
76102;SHT30;64830;46.910;6.354;2022-12-18T14:23:38;5.73;68.72
76102;SHT30;64830;46.910;6.354;2022-12-18T14:26:25;5.71;68.40
76102;SHT30;64830;46.910;6.354;2022-12-18T14:28:53;5.68;68.86
76102;SHT30;64830;46.910;6.354;2022-12-18T14:31:26;5.66;69.06
76102;SHT30;64830;46.910;6.354;2022-12-18T14:33:52;5.65;69.14
76102;SHT30;64830;46.910;6.354;2022-12-18T14:36:26;5.58;69.00
76102;SHT30;64830;46.910;6.354;2022-12-18T14:38:54;5.58;68.95
76102;SHT30;64830;46.910;6.354;2022-12-18T14:41:21;5.52;69.14
76102;SHT30;64830;46.910;6.354;2022-12-18T14:43:49;5.51;68.99
76102;SHT30;64830;46.910;6.354;2022-12-18T14:49:00;5.44;68.99
76102;SHT30;64830;46.910;6.354;2022-12-18T14:51:30;5.41;69.28
76102;SHT30;64830;46.910;6.354;2022-12-18T14:54:05;5.35;69.33
76102;SHT30;64830;46.910;6.354;2022-12-18T14:56:36;5.31;69.31
76102;SHT30;64830;46.910;6.354;2022-12-18T14:59:16;5.26;69.47
76102;SHT30;64830;46.910;6.354;2022-12-18T15:02:03;5.20;70.00
76102;SHT30;64830;46.910;6.354;2022-12-18T15:04:36;5.17;70.26
76102;SHT30;64830;46.910;6.354;2022-12-18T15:09:32;5.03;70.46
76102;SHT30;64830;46.910;6.354;2022-12-18T15:11:59;4.99;70.68
76102;SHT30;64830;46.910;6.354;2022-12-18T15:17:18;4.78;71.30
76102;SHT30;64830;46.910;6.354;2022-12-18T15:19:45;4.67;71.48
76102;SHT30;64830;46.910;6.354;2022-12-18T15:22:30;4.55;71.72
76102;SHT30;64830;46.910;6.354;2022-12-18T15:24:58;4.45;71.94
76102;SHT30;64830;46.910;6.354;2022-12-18T15:27:32;4.33;72.16
76102;SHT30;64830;46.910;6.354;2022-12-18T15:32:33;4.17;72.63
76102;SHT30;64830;46.910;6.354;2022-12-18T15:35:22;4.05;72.95
76102;SHT30;64830;46.910;6.354;2022-12-18T15:37:52;3.93;73.07
76102;SHT30;64830;46.910;6.354;2022-12-18T15:40:20;3.81;73.49
76102;SHT30;64830;46.910;6.354;2022-12-18T15:42:46;3.71;73.52
76102;SHT30;64830;46.910;6.354;2022-12-18T15:45:30;3.61;73.83
76102;SHT30;64830;46.910;6.354;2022-12-18T15:47:56;3.51;73.81
76102;SHT30;64830;46.910;6.354;2022-12-18T15:50:21;3.46;73.96
76102;SHT30;64830;46.910;6.354;2022-12-18T15:52:49;3.44;73.96
76102;SHT30;64830;46.910;6.354;2022-12-18T15:55:17;3.41;73.84
76102;SHT30;64830;46.910;6.354;2022-12-18T15:58:02;3.38;73.90
76102;SHT30;64830;46.910;6.354;2022-12-18T16:00:27;3.34;73.88
76102;SHT30;64830;46.910;6.354;2022-12-18T16:02:53;3.34;73.92
76102;SHT30;64830;46.910;6.354;2022-12-18T16:05:20;3.36;74.00
76102;SHT30;64830;46.910;6.354;2022-12-18T16:07:47;3.30;73.98
76102;SHT30;64830;46.910;6.354;2022-12-18T16:10:12;3.30;74.05
76102;SHT30;64830;46.910;6.354;2022-12-18T16:12:38;3.26;74.02
76102;SHT30;64830;46.910;6.354;2022-12-18T16:15:05;3.24;73.93
76102;SHT30;64830;46.910;6.354;2022-12-18T16:17:30;3.24;74.62
76102;SHT30;64830;46.910;6.354;2022-12-18T16:19:56;3.23;73.98
76102;SHT30;64830;46.910;6.354;2022-12-18T16:22:24;3.23;73.66
76102;SHT30;64830;46.910;6.354;2022-12-18T16:24:51;3.23;73.99
76102;SHT30;64830;46.910;6.354;2022-12-18T16:27:17;3.20;74.00
76102;SHT30;64830;46.910;6.354;2022-12-18T16:29:43;3.23;73.93
76102;SHT30;64830;46.910;6.354;2022-12-18T16:32:13;3.23;73.92
76102;SHT30;64830;46.910;6.354;2022-12-18T16:34:39;3.23;73.96
76102;SHT30;64830;46.910;6.354;2022-12-18T16:37:07;3.22;74.06
76102;SHT30;64830;46.910;6.354;2022-12-18T16:39:33;3.17;74.08
76102;SHT30;64830;46.910;6.354;2022-12-18T16:42:00;3.17;74.17
76102;SHT30;64830;46.910;6.354;2022-12-18T16:44:26;3.15;74.34
76102;SHT30;64830;46.910;6.354;2022-12-18T16:46:52;3.08;74.09
76102;SHT30;64830;46.910;6.354;2022-12-18T16:49:18;3.05;74.32
76102;SHT30;64830;46.910;6.354;2022-12-18T16:51:45;3.05;74.27
76102;SHT30;64830;46.910;6.354;2022-12-18T16:54:12;3.00;74.11
76102;SHT30;64830;46.910;6.354;2022-12-18T16:56:37;3.02;73.39
76102;SHT30;64830;46.910;6.354;2022-12-18T16:59:03;3.00;73.40
76102;SHT30;64830;46.910;6.354;2022-12-18T17:01:31;2.96;74.09
76102;SHT30;64830;46.910;6.354;2022-12-18T17:04:04;2.92;74.49
76102;SHT30;64830;46.910;6.354;2022-12-18T17:06:38;2.91;74.45
76102;SHT30;64830;46.910;6.354;2022-12-18T17:09:06;2.87;74.67
76102;SHT30;64830;46.910;6.354;2022-12-18T17:11:33;2.84;74.47
76102;SHT30;64830;46.910;6.354;2022-12-18T17:13:59;2.84;74.62
76102;SHT30;64830;46.910;6.354;2022-12-18T17:16:29;2.84;74.73
76102;SHT30;64830;46.910;6.354;2022-12-18T17:18:55;2.82;74.78
76102;SHT30;64830;46.910;6.354;2022-12-18T17:21:20;2.82;74.96
76102;SHT30;64830;46.910;6.354;2022-12-18T17:23:45;2.82;75.00
76102;SHT30;64830;46.910;6.354;2022-12-18T17:26:12;2.80;75.15
76102;SHT30;64830;46.910;6.354;2022-12-18T17:28:39;2.80;75.15
76102;SHT30;64830;46.910;6.354;2022-12-18T17:31:13;2.74;75.17
76102;SHT30;64830;46.910;6.354;2022-12-18T17:33:39;2.70;75.15